Time;durP1;ratioP1;P1;durP2;ratioP2;P2;SDS_P1;SDS_P2;PMS_P1;PMS_P2;Temp;Humidity;BMP_temperature;BMP_pressure;BME280_temperature;BME280_humidity;BME280_pressure;Samples;Min_cycle;Max_cycle;Signal;HPM_P1;HPM_P2
2022/04/12 04:14:52;;;;;;;17.30;10.60;;;;;;;-0.09;100.00;100896.44;5567133;32;263503;-86
2022/04/12 04:17:58;;;;;;;19.85;11.15;;;;;;;-0.04;100.00;100900.78;5552169;32;34157;-87
2022/04/12 04:21:01;;;;;;;20.98;10.85;;;;;;;0.01;100.00;100894.72;5551650;32;34082;-87
2022/04/12 04:24:05;;;;;;;18.33;10.88;;;;;;;0.02;100.00;100905.16;5552200;32;33983;-87
2022/04/12 04:27:08;;;;;;;17.95;10.48;;;;;;;0.04;100.00;100905.19;5555916;32;34168;-87
2022/04/12 04:30:12;;;;;;;16.48;9.73;;;;;;;0.10;100.00;100905.19;5550354;32;32496;-87
2022/04/12 04:33:18;;;;;;;17.27;10.05;;;;;;;0.13;100.00;100902.56;5555027;32;33833;-86
2022/04/12 04:36:21;;;;;;;15.48;9.75;;;;;;;0.25;100.00;100901.75;5553605;32;32933;-87
2022/04/12 04:39:25;;;;;;;20.10;10.93;;;;;;;0.33;100.00;100902.63;5550938;32;33727;-87
2022/04/12 04:42:28;;;;;;;16.27;9.82;;;;;;;0.41;100.00;100910.47;5552596;32;33701;-87
2022/04/12 04:45:30;;;;;;;15.52;9.80;;;;;;;0.64;100.00;100914.81;5550311;32;33955;-86
2022/04/12 04:48:34;;;;;;;17.15;9.48;;;;;;;0.70;100.00;100913.94;5556383;32;33666;-86
2022/04/12 04:51:41;;;;;;;22.42;9.60;;;;;;;0.75;100.00;100913.06;5560516;32;35877;-87
2022/04/12 04:54:43;;;;;;;16.45;9.15;;;;;;;0.94;100.00;100913.94;5548780;32;34274;-86
2022/04/12 04:57:47;;;;;;;12.13;8.70;;;;;;;1.04;100.00;100924.34;5530258;32;33936;-86
2022/04/12 05:00:50;;;;;;;15.07;8.60;;;;;;;1.05;99.63;100937.44;5527202;32;32490;-86
2022/04/12 05:03:52;;;;;;;13.73;8.57;;;;;;;1.12;98.29;100933.06;5527309;32;32145;-87
2022/04/12 05:06:56;;;;;;;12.90;8.90;;;;;;;1.28;98.78;100939.13;5527883;32;33922;-87
2022/04/12 05:10:00;;;;;;;13.10;8.88;;;;;;;1.40;98.05;100937.38;5529154;32;33896;-85
2022/04/12 05:13:03;;;;;;;24.30;10.32;;;;;;;1.60;98.25;100939.91;5534327;32;32408;-86
2022/04/12 05:16:06;;;;;;;14.68;8.75;;;;;;;1.79;97.50;100940.72;5532426;32;32784;-87
2022/04/12 05:19:09;;;;;;;15.70;9.40;;;;;;;2.05;95.31;100952.81;5535099;32;33861;-86
2022/04/12 05:22:12;;;;;;;16.75;8.95;;;;;;;2.46;92.27;100952.59;5531237;32;32935;-87
2022/04/12 05:25:16;;;;;;;14.63;8.40;;;;;;;4.58;87.41;100946.72;5536716;32;32903;-86
2022/04/12 05:28:18;;;;;;;16.10;8.60;;;;;;;6.50;72.22;100947.47;5521669;32;34202;-86
2022/04/12 05:31:22;;;;;;;17.27;8.73;;;;;;;6.96;66.37;100951.63;5533359;32;35371;-86
2022/04/12 05:34:25;;;;;;;12.30;8.30;;;;;;;5.98;66.54;100953.00;5544069;32;34085;-86
2022/04/12 05:37:31;;;;;;;14.48;8.82;;;;;;;5.03;70.05;100960.91;5536766;32;32028;-86
2022/04/12 05:40:34;;;;;;;14.52;8.25;;;;;;;5.40;69.09;100952.34;5514932;32;33389;-86
2022/04/12 05:43:37;;;;;;;15.48;8.85;;;;;;;5.89;66.25;100949.63;5519065;32;33155;-86
2022/04/12 05:46:40;;;;;;;14.48;8.73;;;;;;;6.80;64.77;100945.87;5518337;32;33950;-86
2022/04/12 05:49:43;;;;;;;12.82;8.43;;;;;;;8.45;59.51;100951.00;5523222;32;33313;-86
2022/04/12 05:52:46;;;;;;;12.02;7.53;;;;;;;9.94;55.46;100952.97;5522440;32;32791;-90
2022/04/12 05:55:49;;;;;;;13.27;7.72;;;;;;;10.00;51.68;100955.37;5532362;32;32731;-91
2022/04/12 05:58:51;;;;;;;13.30;7.62;;;;;;;9.96;50.30;100954.66;5530683;32;34323;-91
2022/04/12 06:01:54;;;;;;;11.95;7.57;;;;;;;9.57;49.39;100953.41;5524222;32;33813;-91
2022/04/12 06:04:57;;;;;;;10.52;7.70;;;;;;;10.14;48.57;100967.25;5517392;32;33351;-85
2022/04/12 06:08:00;;;;;;;10.35;7.68;;;;;;;11.41;47.28;100959.47;5518886;32;34055;-84
2022/04/12 06:11:04;;;;;;;10.18;7.62;;;;;;;11.99;43.04;100956.91;5518792;32;34313;-84
2022/04/12 06:14:06;;;;;;;10.02;7.90;;;;;;;13.14;41.26;100970.03;5531410;32;33951;-85
2022/04/12 06:17:10;;;;;;;8.65;6.40;;;;;;;13.18;40.57;100971.56;5529339;32;33945;-85
2022/04/12 06:20:16;;;;;;;10.45;6.95;;;;;;;15.15;37.56;100963.59;5534261;32;32744;-86
2022/04/12 06:23:19;;;;;;;9.65;6.72;;;;;;;16.57;33.64;100958.41;5531976;32;33976;-85
2022/04/12 06:26:22;;;;;;;8.88;6.72;;;;;;;16.63;32.78;100962.47;5522154;32;32782;-85
2022/04/12 06:29:25;;;;;;;13.30;8.38;;;;;;;15.23;34.73;100967.53;5524403;32;32366;-85
2022/04/12 06:32:28;;;;;;;12.68;8.10;;;;;;;15.72;33.99;100964.62;5532861;32;34842;-84
2022/04/12 06:35:37;;;;;;;10.23;7.95;;;;;;;16.30;32.31;100965.44;5531746;32;32872;-84
2022/04/12 06:38:39;;;;;;;11.32;7.80;;;;;;;14.13;35.76;100966.63;5531721;32;33625;-85
2022/04/12 06:41:42;;;;;;;9.55;7.55;;;;;;;15.82;33.37;100960.41;5516227;32;33063;-84
2022/04/12 06:44:45;;;;;;;9.60;7.78;;;;;;;17.42;31.77;100973.31;5527650;32;32645;-84
2022/04/12 06:47:58;;;;;;;9.23;7.72;;;;;;;19.11;28.73;100973.72;5526731;32;33591;-83
2022/04/12 06:51:02;;;;;;;10.80;8.05;;;;;;;19.41;27.49;100973.31;5541595;32;34068;-84
2022/04/12 06:54:05;;;;;;;10.23;8.15;;;;;;;18.91;28.18;100971.69;5512581;32;33044;-85
2022/04/12 06:57:13;;;;;;;10.63;8.18;;;;;;;18.59;28.84;100976.66;5513548;32;34209;-85
2022/04/12 07:00:19;;;;;;;11.70;8.20;;;;;;;18.95;28.28;100965.06;5515571;32;33799;-85
2022/04/12 07:03:21;;;;;;;16.27;7.78;;;;;;;17.96;29.69;100970.47;5517036;32;34762;-85
2022/04/12 07:06:25;;;;;;;11.32;8.05;;;;;;;20.03;26.94;100960.41;5514991;32;33611;-85
2022/04/12 07:09:29;;;;;;;11.68;7.85;;;;;;;17.94;28.93;100964.38;5513037;32;32279;-85
2022/04/12 07:12:32;;;;;;;10.85;8.00;;;;;;;19.51;27.62;100974.31;5528479;32;33188;-85
2022/04/12 07:15:37;;;;;;;14.15;8.48;;;;;;;20.37;25.33;100967.56;5533109;32;33478;-85
2022/04/12 07:18:43;;;;;;;10.57;8.73;;;;;;;19.02;26.48;100971.72;5532452;32;34249;-86
2022/04/12 07:21:46;;;;;;;10.98;8.63;;;;;;;19.76;26.77;100978.59;5523619;32;32956;-86
2022/04/12 07:24:49;;;;;;;11.52;8.90;;;;;;;17.90;28.94;100983.38;5524516;32;35283;-86
2022/04/12 07:27:51;;;;;;;11.77;8.27;;;;;;;18.77;27.73;100970.03;5517924;32;33309;-86
2022/04/12 07:30:54;;;;;;;13.20;8.18;;;;;;;19.44;26.78;100978.44;5528400;32;32453;-86
2022/04/12 07:34:11;;;;;;;14.38;8.40;;;;;;;19.89;26.09;100977.62;5541355;32;33216;-87
2022/04/12 07:37:14;;;;;;;9.82;6.90;;;;;;;21.58;24.43;100975.47;5531767;32;34938;-86
2022/04/12 07:40:17;;;;;;;10.63;6.75;;;;;;;21.53;23.47;100968.63;5510435;32;32534;-86
2022/04/12 07:43:20;;;;;;;9.52;7.43;;;;;;;24.29;20.60;100967.78;5523658;32;33407;-87
2022/04/12 07:46:24;;;;;;;13.65;7.60;;;;;;;24.80;20.24;100964.56;5523215;32;34364;-90
2022/04/12 07:49:28;;;;;;;9.73;7.05;;;;;;;26.53;18.77;100963.00;5516367;32;33875;-90
2022/04/12 07:52:30;;;;;;;10.88;7.28;;;;;;;24.54;20.06;100961.78;5529607;32;32801;-90
2022/04/12 07:55:33;;;;;;;11.23;7.28;;;;;;;21.86;23.21;100975.75;5530478;32;32553;-86
2022/04/12 07:58:36;;;;;;;12.48;7.93;;;;;;;23.47;22.11;100967.56;5532325;32;34137;-85
2022/04/12 08:01:39;;;;;;;12.13;7.85;;;;;;;24.12;21.60;100961.31;5530919;32;32627;-85
2022/04/12 08:04:43;;;;;;;10.00;7.60;;;;;;;23.27;22.72;100971.12;5527169;32;34067;-85
2022/04/12 08:07:49;;;;;;;14.20;7.43;;;;;;;21.54;24.23;100975.72;5519409;32;32485;-86
2022/04/12 08:10:52;;;;;;;9.75;7.60;;;;;;;21.10;25.80;100975.03;5516879;32;33600;-86
2022/04/12 08:13:54;;;;;;;10.13;7.37;;;;;;;20.38;25.95;100970.13;5510258;32;33808;-85
2022/04/12 08:16:57;;;;;;;10.85;7.68;;;;;;;20.13;24.19;100974.84;5510854;32;32521;-84
2022/04/12 08:20:00;;;;;;;9.63;6.97;;;;;;;19.62;26.72;100982.37;5516253;32;32457;-85
2022/04/12 08:23:03;;;;;;;12.52;7.70;;;;;;;20.22;25.84;100980.44;5529610;32;33502;-85
2022/04/12 08:26:06;;;;;;;8.68;7.37;;;;;;;20.03;25.82;100976.56;5532291;32;32254;-85
2022/04/12 08:29:09;;;;;;;9.25;7.80;;;;;;;20.86;25.64;100977.00;5535722;32;33880;-86
2022/04/12 08:32:12;;;;;;;13.40;7.90;;;;;;;19.50;26.50;100978.81;5525897;32;33569;-87
2022/04/12 08:35:15;;;;;;;10.48;7.22;;;;;;;20.22;27.35;100970.53;5514170;32;33503;-86
2022/04/12 08:38:17;;;;;;;10.00;6.78;;;;;;;20.31;27.32;100980.56;5515613;32;33201;-87
2022/04/12 08:41:25;;;;;;;10.27;6.70;;;;;;;19.15;25.95;100977.03;5523255;32;33877;-85
2022/04/12 08:44:29;;;;;;;7.72;6.78;;;;;;;18.31;26.64;100978.69;5521282;32;32903;-87
2022/04/12 08:47:34;;;;;;;10.07;6.60;;;;;;;19.91;25.00;100975.66;5514403;32;32546;-87
2022/04/12 08:50:37;;;;;;;10.07;7.00;;;;;;;20.37;24.45;100973.78;5517501;32;34221;-86
2022/04/12 08:53:41;;;;;;;9.65;7.10;;;;;;;18.78;25.02;100977.97;5526297;32;33858;-86
2022/04/12 08:56:46;;;;;;;9.55;6.65;;;;;;;20.20;24.90;100976.03;5527432;32;34021;-86
2022/04/12 08:59:54;;;;;;;9.43;6.80;;;;;;;20.80;23.36;100971.22;5533743;32;34544;-86
2022/04/12 09:02:59;;;;;;;11.38;6.30;;;;;;;19.39;24.32;100968.03;5536362;32;32444;-85
2022/04/12 09:06:10;;;;;;;7.45;5.93;;;;;;;19.87;25.65;100974.22;5542311;32;33253;-85
2022/04/12 09:09:27;;;;;;;7.55;6.35;;;;;;;20.24;23.37;100970.41;5535904;32;33827;-83
2022/04/12 09:12:34;;;;;;;9.13;5.70;;;;;;;19.45;24.15;100972.09;5536566;32;35132;-83
2022/04/12 09:16:36;;;;;;;7.97;5.60;;;;;;;19.75;24.25;100965.25;5539245;32;32393;-85
2022/04/12 09:19:46;;;;;;;8.77;6.20;;;;;;;19.61;25.08;100959.13;5465087;32;33365;-84
2022/04/12 09:22:50;;;;;;;9.75;6.43;;;;;;;20.92;22.14;100959.41;5526373;32;32171;-83
2022/04/12 09:25:54;;;;;;;7.35;5.50;;;;;;;20.70;22.58;100961.22;5555105;32;33883;-84
2022/04/12 09:29:02;;;;;;;7.70;5.57;;;;;;;20.70;23.65;100955.81;5536167;32;32453;-84
2022/04/12 09:32:06;;;;;;;6.97;4.95;;;;;;;19.86;22.78;100942.88;5556125;32;33833;-84
2022/04/12 09:35:21;;;;;;;9.30;6.10;;;;;;;19.80;23.96;100939.69;5543182;32;33114;-84
2022/04/12 09:38:58;;;;;;;7.50;5.75;;;;;;;19.83;22.87;100943.13;5537736;32;34142;-84
2022/04/12 09:42:02;;;;;;;9.65;5.57;;;;;;;19.26;23.58;100939.41;5548508;32;34335;-84
2022/04/12 09:45:07;;;;;;;9.65;5.47;;;;;;;20.38;22.41;100934.25;5535813;32;34070;-84
2022/04/12 09:48:10;;;;;;;9.95;5.55;;;;;;;19.78;22.31;100935.41;5537136;32;32811;-83
2022/04/12 09:51:36;;;;;;;7.70;5.37;;;;;;;19.58;23.15;100937.88;5553019;32;33659;-84
2022/04/12 09:54:42;;;;;;;6.28;5.35;;;;;;;20.92;21.73;100926.22;5550456;32;34264;-83
2022/04/12 09:57:45;;;;;;;5.53;4.30;;;;;;;19.31;22.99;100927.44;5533353;32;33914;-84
2022/04/12 10:00:51;;;;;;;7.53;5.18;;;;;;;20.34;23.66;100922.88;5539359;32;32704;-87
2022/04/12 10:03:59;;;;;;;12.30;5.37;;;;;;;20.94;20.89;100922.41;5543365;32;34092;-89
2022/04/12 10:07:03;;;;;;;7.95;5.47;;;;;;;20.55;22.37;100914.84;5549803;32;34675;-87
2022/04/12 10:10:06;;;;;;;8.40;5.75;;;;;;;21.55;20.74;100917.22;5549090;32;33713;-84
2022/04/12 10:13:11;;;;;;;7.40;5.00;;;;;;;23.82;19.30;100909.97;5529126;32;32516;-84
2022/04/12 10:16:16;;;;;;;9.60;5.37;;;;;;;25.93;17.13;100900.47;5543357;32;33948;-84
2022/04/12 10:19:21;;;;;;;8.00;5.22;;;;;;;23.34;19.38;100908.31;5545737;32;32988;-85
2022/04/12 10:22:33;;;;;;;9.15;5.30;;;;;;;23.12;19.78;100902.22;5552530;32;33552;-84
2022/04/12 10:25:36;;;;;;;10.40;5.15;;;;;;;21.45;20.68;100902.81;5544038;32;34442;-86
2022/04/12 10:28:40;;;;;;;9.25;5.15;;;;;;;20.00;22.42;100896.88;5526541;32;34656;-87
2022/04/12 10:31:58;;;;;;;5.75;4.97;;;;;;;20.59;22.38;100899.25;5533130;32;34114;-86
2022/04/12 10:35:21;;;;;;;8.38;5.75;;;;;;;18.81;24.46;100885.50;5535115;32;33149;-86
2022/04/12 10:38:39;;;;;;;8.30;5.28;;;;;;;18.37;24.48;100887.91;5546338;32;32923;-85
2022/04/12 10:41:42;;;;;;;7.95;5.32;;;;;;;19.15;24.02;100879.38;5548506;32;35305;-86
2022/04/12 10:44:58;;;;;;;8.82;5.68;;;;;;;18.94;22.51;100872.84;5542642;32;34085;-87
2022/04/12 10:48:02;;;;;;;8.63;5.20;;;;;;;21.30;21.76;100870.81;5528338;32;33874;-87
2022/04/12 10:51:06;;;;;;;7.12;5.15;;;;;;;23.38;19.21;100867.28;5530272;32;34679;-87
2022/04/12 10:54:29;;;;;;;7.97;5.53;;;;;;;25.08;16.77;100868.66;5517832;32;33312;-85
2022/04/12 10:57:34;;;;;;;9.23;4.20;;;;;;;24.00;18.29;100871.25;5535374;32;33913;-85
2022/04/12 11:00:39;;;;;;;6.70;5.20;;;;;;;23.06;20.91;100860.37;5535464;32;34224;-89
2022/04/12 11:03:41;;;;;;;7.82;5.35;;;;;;;21.11;21.42;100858.94;5541462;32;34230;-92
2022/04/12 11:06:46;;;;;;;6.22;5.22;;;;;;;20.24;22.65;100865.34;5532995;32;33570;-89
2022/04/12 11:10:15;;;;;;;7.32;5.53;;;;;;;19.93;23.29;100856.09;5557600;32;34234;-86
2022/04/12 11:13:39;;;;;;;7.20;5.12;;;;;;;19.84;22.18;100864.94;5510713;32;33863;-86
2022/04/12 11:16:51;;;;;;;7.32;5.18;;;;;;;19.19;23.05;100853.94;5541401;32;33398;-86
2022/04/12 11:19:56;;;;;;;5.65;4.72;;;;;;;19.18;23.10;100845.03;5553838;32;33624;-86
2022/04/12 11:23:07;;;;;;;6.75;4.70;;;;;;;22.03;21.01;100841.94;5528047;32;32698;-88
2022/04/12 11:26:38;;;;;;;9.88;5.10;;;;;;;21.74;20.29;100827.37;5550894;32;34227;-88
2022/04/12 11:29:42;;;;;;;7.50;5.37;;;;;;;20.36;22.12;100826.59;5561549;32;35120;-88
2022/04/12 11:32:45;;;;;;;7.90;5.30;;;;;;;19.27;22.67;100816.56;5570822;32;34163;-89
2022/04/12 11:35:50;;;;;;;9.18;5.00;;;;;;;19.43;22.99;100829.63;5532537;32;33062;-87
2022/04/12 11:38:56;;;;;;;8.30;5.07;;;;;;;18.96;23.36;100824.34;5553652;32;33969;-88
2022/04/12 11:42:00;;;;;;;7.90;5.03;;;;;;;18.31;24.26;100820.25;5571784;32;34908;-88
2022/04/12 11:45:04;;;;;;;7.00;5.68;;;;;;;17.69;25.42;100818.56;5547782;32;34125;-87
2022/04/12 11:48:08;;;;;;;7.68;5.40;;;;;;;17.65;25.50;100812.53;5534983;32;34195;-88
2022/04/12 11:51:11;;;;;;;6.60;5.65;;;;;;;18.33;24.62;100820.13;5528575;32;32085;-86
2022/04/12 11:54:24;;;;;;;7.85;5.55;;;;;;;17.38;25.07;100824.31;5533673;32;32437;-87
2022/04/12 11:57:27;;;;;;;7.95;5.28;;;;;;;16.50;26.18;100823.19;5529078;32;33887;-89
2022/04/12 12:00:31;;;;;;;6.15;5.20;;;;;;;16.74;26.16;100815.28;5536339;32;33988;-91
2022/04/12 12:03:37;;;;;;;7.68;5.53;;;;;;;15.97;27.08;100813.28;5521780;32;32796;-92
2022/04/12 12:06:57;;;;;;;9.73;5.50;;;;;;;16.07;27.44;100818.88;5536126;32;33786;-88
2022/04/12 12:10:05;;;;;;;7.65;5.70;;;;;;;16.30;27.20;100823.56;5542174;32;34088;-87
2022/04/12 12:13:11;;;;;;;8.90;5.50;;;;;;;16.49;26.28;100818.81;5532340;32;32283;-88
2022/04/12 12:16:21;;;;;;;6.28;5.15;;;;;;;16.87;26.26;100809.94;5542098;32;32782;-87
2022/04/12 12:19:24;;;;;;;7.15;5.35;;;;;;;17.06;26.45;100806.00;5518931;32;32361;-88
2022/04/12 12:22:36;;;;;;;9.15;6.30;;;;;;;16.74;27.00;100801.06;5540852;32;33871;-88
2022/04/12 12:25:39;;;;;;;9.85;6.03;;;;;;;16.48;26.46;100801.88;5554174;32;33980;-88
2022/04/12 12:28:45;;;;;;;8.07;5.65;;;;;;;15.81;26.92;100790.19;5527711;32;33311;-88
2022/04/12 12:31:47;;;;;;;7.78;5.75;;;;;;;15.11;28.59;100791.03;5528532;32;33629;-88
2022/04/12 12:34:50;;;;;;;8.60;5.32;;;;;;;15.79;28.54;100796.59;5541541;32;33909;-87
2022/04/12 12:38:10;;;;;;;11.50;5.85;;;;;;;16.36;28.07;100798.22;5536563;32;34008;-88
2022/04/12 12:41:28;;;;;;;7.15;5.30;;;;;;;16.75;27.10;100784.84;5535098;32;33689;-88
2022/04/12 12:44:37;;;;;;;7.15;5.97;;;;;;;16.71;27.01;100789.56;5544644;32;34670;-88
2022/04/12 12:47:41;;;;;;;8.38;5.85;;;;;;;16.50;26.97;100777.69;5548001;32;34538;-88
2022/04/12 12:50:46;;;;;;;8.23;5.28;;;;;;;15.83;27.84;100780.25;5521096;32;33252;-89
2022/04/12 12:53:59;;;;;;;7.55;5.12;;;;;;;16.06;28.24;100777.03;5518739;32;33579;-87
2022/04/12 12:57:02;;;;;;;8.35;5.93;;;;;;;16.37;28.29;100774.97;5545269;32;33840;-87
2022/04/12 13:00:07;;;;;;;7.80;5.80;;;;;;;16.42;27.02;100762.13;5531331;32;32602;-88
2022/04/12 13:03:13;;;;;;;9.15;6.00;;;;;;;16.14;28.33;100766.69;5524970;32;34027;-90
2022/04/12 13:06:26;;;;;;;7.65;5.43;;;;;;;16.30;28.32;100763.84;5542966;32;33446;-88
2022/04/12 13:09:30;;;;;;;6.90;5.62;;;;;;;16.23;28.93;100774.09;5531008;32;32661;-87
2022/04/12 13:12:33;;;;;;;13.23;6.57;;;;;;;16.11;28.14;100780.25;5532873;32;34422;-87
2022/04/12 13:15:36;;;;;;;9.35;6.47;;;;;;;16.05;28.28;100761.94;5517354;32;32819;-87
2022/04/12 13:18:39;;;;;;;8.55;5.90;;;;;;;15.62;27.88;100761.09;5532876;32;34150;-88
2022/04/12 13:21:42;;;;;;;9.15;5.70;;;;;;;15.72;28.41;100753.34;5532264;32;32384;-87
2022/04/12 13:24:45;;;;;;;8.75;6.07;;;;;;;16.03;27.94;100754.00;5532615;32;33603;-87
2022/04/12 13:27:52;;;;;;;7.05;5.78;;;;;;;16.14;27.79;100750.62;5516761;32;33004;-87
2022/04/12 13:30:56;;;;;;;9.38;6.22;;;;;;;16.19;27.83;100753.00;5519941;32;33198;-85
2022/04/12 13:33:59;;;;;;;10.20;5.82;;;;;;;16.37;28.09;100750.88;5532793;32;34178;-86
2022/04/12 13:37:04;;;;;;;8.50;6.12;;;;;;;16.65;28.69;100744.47;5534617;32;34958;-85
2022/04/12 13:40:08;;;;;;;10.63;7.20;;;;;;;16.68;27.00;100744.25;5535867;32;33773;-85
2022/04/12 13:43:11;;;;;;;12.20;6.55;;;;;;;16.55;27.12;100738.87;5521651;32;33055;-84
2022/04/12 13:46:13;;;;;;;10.05;7.07;;;;;;;16.47;28.15;100729.66;5520029;32;32240;-84
2022/04/12 13:49:16;;;;;;;9.48;6.87;;;;;;;16.95;29.51;100735.22;5520240;32;32806;-84
2022/04/12 13:52:21;;;;;;;11.27;7.10;;;;;;;17.08;26.86;100735.25;5532376;32;33943;-87
2022/04/12 13:55:24;;;;;;;10.07;6.53;;;;;;;16.97;26.45;100732.44;5529763;32;33935;-86
2022/04/12 13:58:26;;;;;;;11.12;6.68;;;;;;;16.94;27.24;100740.69;5517175;32;32385;-86
2022/04/12 14:01:30;;;;;;;11.18;6.50;;;;;;;17.01;26.57;100733.97;5533147;32;33976;-86
2022/04/12 14:04:34;;;;;;;9.90;6.40;;;;;;;16.39;25.98;100733.75;5540361;32;34644;-86
2022/04/12 14:07:36;;;;;;;9.15;7.03;;;;;;;16.07;27.06;100734.12;5536462;32;32624;-86
2022/04/12 14:10:40;;;;;;;11.48;6.90;;;;;;;15.99;27.00;100731.13;5539171;32;33524;-87
2022/04/12 14:13:44;;;;;;;9.45;6.68;;;;;;;15.87;27.37;100725.59;5540164;32;33128;-86
2022/04/12 14:16:49;;;;;;;11.95;7.00;;;;;;;16.09;26.70;100721.47;5560678;32;35021;-86
2022/04/12 14:19:52;;;;;;;12.63;7.47;;;;;;;16.05;26.84;100728.03;5555658;32;34588;-87
2022/04/12 14:22:55;;;;;;;11.00;6.37;;;;;;;15.86;27.27;100721.19;5538618;32;32234;-86
2022/04/12 14:25:58;;;;;;;13.90;7.07;;;;;;;16.08;27.54;100709.06;5547675;32;34093;-87
2022/04/12 14:29:01;;;;;;;10.50;6.28;;;;;;;15.89;27.80;100715.63;5530941;32;32992;-87
2022/04/12 14:32:04;;;;;;;8.80;6.70;;;;;;;16.08;28.16;100705.56;5547061;32;33776;-87
2022/04/12 14:35:09;;;;;;;10.98;6.95;;;;;;;16.42;27.68;100709.44;5540830;32;32711;-87
2022/04/12 14:38:11;;;;;;;8.30;6.53;;;;;;;16.44;27.72;100717.34;5551949;32;34596;-87
2022/04/12 14:41:14;;;;;;;11.10;6.62;;;;;;;16.39;27.47;100714.16;5534464;32;32700;-88
2022/04/12 14:44:17;;;;;;;9.27;6.15;;;;;;;16.61;27.36;100716.19;5546158;32;34308;-86
2022/04/12 14:47:20;;;;;;;9.77;6.30;;;;;;;16.42;26.91;100713.94;5534360;32;32718;-86
2022/04/12 14:50:23;;;;;;;8.30;6.43;;;;;;;16.22;27.50;100709.94;5533630;32;34313;-86
2022/04/12 14:53:27;;;;;;;9.18;6.75;;;;;;;16.16;27.38;100709.41;5531084;32;32610;-86
2022/04/12 14:56:30;;;;;;;10.23;6.93;;;;;;;16.24;27.71;100711.56;5532109;32;33971;-86
2022/04/12 14:59:34;;;;;;;8.88;6.97;;;;;;;16.11;27.22;100710.69;5535147;32;34460;-86
2022/04/12 15:02:36;;;;;;;8.60;6.62;;;;;;;15.75;27.93;100713.88;5552253;32;35285;-86
2022/04/12 15:05:39;;;;;;;10.02;6.45;;;;;;;15.86;28.20;100704.28;5552513;32;33841;-86
2022/04/12 15:08:42;;;;;;;9.70;6.68;;;;;;;15.92;27.65;100709.25;5536162;32;32495;-87
2022/04/12 15:11:46;;;;;;;9.48;6.78;;;;;;;15.89;27.79;100710.28;5550455;32;32969;-90
2022/04/12 15:14:48;;;;;;;10.75;6.53;;;;;;;16.25;27.17;100715.09;5536870;32;32789;-90
2022/04/12 15:17:52;;;;;;;9.30;6.57;;;;;;;16.25;27.36;100715.94;5535575;32;32459;-91
2022/04/12 15:20:55;;;;;;;10.30;6.40;;;;;;;16.02;27.30;100709.50;5550333;32;34646;-88
2022/04/12 15:23:58;;;;;;;10.07;6.40;;;;;;;16.08;27.20;100714.44;5535671;32;32694;-87
2022/04/12 15:27:01;;;;;;;11.57;7.40;;;;;;;16.08;27.43;100710.91;5535893;32;32741;-87
2022/04/12 15:30:10;;;;;;;9.98;6.75;;;;;;;15.92;27.17;100706.56;5541282;32;33240;-87
2022/04/12 15:33:14;;;;;;;11.98;6.82;;;;;;;15.66;27.80;100711.81;5535916;32;32511;-87
2022/04/12 15:36:18;;;;;;;9.90;6.68;;;;;;;15.74;27.40;100701.47;5549173;32;34362;-87
2022/04/12 15:39:25;;;;;;;9.05;6.50;;;;;;;15.59;27.55;100694.47;5542292;32;32432;-86
2022/04/12 15:42:28;;;;;;;9.15;6.30;;;;;;;15.54;27.15;100694.75;5548523;32;33083;-86
